createdAt,value
2019-01-24T00:00:01.998Z,9.00
2019-01-24T00:02:30.139Z,10.07
2019-01-24T00:04:58.412Z,9.53
2019-01-24T00:07:26.738Z,9.80
2019-01-24T00:09:54.394Z,6.80
2019-01-24T00:12:22.326Z,9.27
2019-01-24T00:14:50.024Z,11.27
2019-01-24T00:17:17.771Z,13.17
2019-01-24T00:19:45.849Z,9.30
2019-01-24T00:22:13.542Z,12.43
2019-01-24T00:24:41.232Z,11.13
2019-01-24T00:29:38.684Z,7.93
2019-01-24T00:32:06.394Z,9.90
2019-01-24T00:34:34.101Z,10.50
2019-01-24T00:37:02.439Z,9.00
2019-01-24T00:39:30.838Z,9.87
2019-01-24T00:41:58.885Z,8.90
2019-01-24T00:44:27.057Z,8.27
2019-01-24T00:46:55.049Z,8.10
2019-01-24T00:49:23.093Z,6.37
2019-01-24T00:51:51.310Z,7.33
2019-01-24T00:54:19.194Z,9.00
2019-01-24T00:56:47.038Z,6.40
2019-01-24T00:59:15.689Z,12.00
2019-01-24T01:01:44.165Z,11.77
2019-01-24T01:04:12.240Z,13.47
2019-01-24T01:06:40.193Z,7.93
2019-01-24T01:09:09.690Z,12.17
2019-01-24T01:11:38.377Z,9.73
2019-01-24T01:14:08.593Z,7.00
2019-01-24T01:16:36.458Z,8.33
2019-01-24T01:19:04.127Z,10.07
2019-01-24T01:21:31.801Z,11.47
2019-01-24T01:24:00.134Z,10.73
2019-01-24T01:26:28.438Z,9.83
2019-01-24T01:28:56.860Z,10.27
2019-01-24T01:31:25.209Z,8.83
2019-01-24T01:33:54.229Z,9.17
2019-01-24T01:36:21.895Z,10.40
2019-01-24T01:38:49.578Z,10.80
2019-01-24T01:41:17.284Z,9.63
2019-01-24T01:43:44.953Z,10.83
2019-01-24T01:46:13.036Z,9.63
2019-01-24T01:48:40.841Z,9.07
2019-01-24T01:51:08.501Z,8.47
2019-01-24T01:53:36.201Z,9.63
2019-01-24T01:56:04.336Z,10.17
2019-01-24T01:58:32.059Z,12.20
2019-01-24T02:00:59.794Z,9.93
2019-01-24T02:03:27.487Z,8.27
2019-01-24T02:05:55.785Z,9.50
2019-01-24T02:08:23.468Z,9.00
2019-01-24T02:10:51.281Z,9.50
2019-01-24T02:13:19.031Z,9.17
2019-01-24T02:15:46.829Z,11.13
2019-01-24T02:18:14.830Z,10.93
2019-01-24T02:20:42.941Z,10.40
2019-01-24T02:23:11.323Z,10.50
2019-01-24T02:25:39.095Z,11.10
2019-01-24T02:28:07.200Z,8.60
2019-01-24T02:30:35.017Z,11.40
2019-01-24T02:33:03.982Z,9.80
2019-01-24T02:35:31.664Z,10.67
2019-01-24T02:37:59.367Z,8.23
2019-01-24T02:40:27.045Z,11.83
2019-01-24T02:42:54.748Z,13.00
2019-01-24T02:45:22.745Z,12.43
2019-01-24T02:47:51.424Z,11.27
2019-01-24T02:50:19.961Z,10.30
2019-01-24T02:52:48.514Z,12.50
2019-01-24T02:55:16.886Z,10.77
2019-01-24T02:57:44.737Z,11.60
2019-01-24T03:00:15.370Z,9.13
2019-01-24T03:02:43.287Z,9.77
2019-01-24T03:05:13.273Z,9.47
2019-01-24T03:07:41.037Z,10.87
2019-01-24T03:10:10.486Z,12.13
2019-01-24T03:12:38.145Z,11.47
2019-01-24T03:15:07.050Z,14.57
2019-01-24T03:17:34.957Z,11.40
2019-01-24T03:20:04.174Z,13.03
2019-01-24T03:22:32.710Z,12.93
2019-01-24T03:25:03.770Z,13.57
2019-01-24T03:27:31.741Z,13.80
2019-01-24T03:29:59.895Z,14.17
2019-01-24T03:32:27.822Z,12.97
2019-01-24T03:34:56.138Z,11.57
2019-01-24T03:37:24.220Z,13.07
2019-01-24T03:39:55.070Z,11.00
2019-01-24T03:42:23.992Z,12.53
2019-01-24T03:44:52.153Z,12.60
2019-01-24T03:47:20.189Z,14.13
2019-01-24T03:49:48.864Z,11.63
2019-01-24T03:52:17.061Z,13.40
2019-01-24T03:54:45.321Z,12.40
2019-01-24T03:57:13.424Z,12.93
2019-01-24T03:59:41.757Z,13.23
2019-01-24T04:02:10.464Z,11.07
2019-01-24T04:04:38.856Z,12.27
2019-01-24T04:07:07.011Z,10.93
2019-01-24T04:09:36.536Z,13.83
2019-01-24T04:12:05.197Z,12.10
2019-01-24T04:14:33.884Z,11.60
2019-01-24T04:17:01.993Z,13.50
2019-01-24T04:19:30.334Z,9.57
2019-01-24T04:21:58.526Z,12.23
2019-01-24T04:24:26.491Z,10.73
2019-01-24T04:26:55.167Z,12.57
2019-01-24T04:29:24.550Z,12.00
2019-01-24T04:31:52.545Z,10.40
2019-01-24T04:34:20.404Z,12.40
2019-01-24T04:36:48.434Z,13.50
2019-01-24T04:39:16.761Z,13.40
2019-01-24T04:41:44.823Z,12.17
2019-01-24T04:44:12.984Z,14.57
2019-01-24T04:46:40.979Z,13.03
2019-01-24T04:49:09.402Z,13.93
2019-01-24T04:51:38.738Z,13.00
2019-01-24T04:54:07.322Z,15.83
2019-01-24T04:56:35.388Z,14.17
2019-01-24T04:59:03.699Z,12.53
2019-01-24T05:01:31.756Z,14.53
2019-01-24T05:03:59.807Z,14.43
2019-01-24T05:06:28.216Z,10.73
2019-01-24T05:08:56.403Z,13.60
2019-01-24T05:11:24.629Z,11.97
2019-01-24T05:13:53.394Z,9.03
2019-01-24T05:16:21.411Z,12.93
2019-01-24T05:18:49.469Z,11.77
2019-01-24T05:21:17.853Z,11.67
2019-01-24T05:23:46.228Z,12.97
2019-01-24T05:26:14.613Z,10.83
2019-01-24T05:28:42.684Z,11.80
2019-01-24T05:31:10.849Z,12.13
2019-01-24T05:33:38.950Z,10.67
2019-01-24T05:36:07.509Z,11.53
2019-01-24T05:38:35.601Z,11.20
2019-01-24T05:41:03.472Z,11.70
2019-01-24T05:43:31.411Z,13.90
2019-01-24T05:45:59.828Z,12.43
2019-01-24T05:48:28.157Z,10.83
2019-01-24T05:50:56.560Z,11.10
2019-01-24T05:53:24.612Z,11.77
2019-01-24T05:55:52.989Z,14.30
2019-01-24T05:58:21.263Z,12.33
2019-01-24T06:00:49.288Z,14.03
2019-01-24T06:03:18.581Z,15.13
2019-01-24T06:05:46.602Z,13.67
2019-01-24T06:08:14.680Z,13.73
2019-01-24T06:10:42.981Z,9.50
2019-01-24T06:13:11.137Z,11.60
2019-01-24T06:15:39.434Z,10.03
2019-01-24T06:18:08.085Z,11.43
2019-01-24T06:20:35.894Z,12.20
2019-01-24T06:23:03.954Z,14.37
2019-01-24T06:25:32.253Z,14.10
2019-01-24T06:28:00.439Z,11.07
2019-01-24T06:30:28.213Z,10.97
2019-01-24T06:32:57.426Z,11.00
2019-01-24T06:35:25.579Z,10.30
2019-01-24T06:37:55.793Z,11.80
2019-01-24T06:40:23.885Z,14.07
2019-01-24T06:42:51.981Z,11.67
2019-01-24T06:45:21.380Z,12.30
2019-01-24T06:47:49.669Z,9.50
2019-01-24T06:50:17.734Z,7.57
2019-01-24T06:52:46.194Z,13.27
2019-01-24T06:55:20.038Z,11.30
2019-01-24T06:57:48.118Z,7.07
2019-01-24T07:00:16.650Z,8.47
2019-01-24T07:02:45.202Z,10.50
2019-01-24T07:05:13.974Z,11.07
2019-01-24T07:07:42.060Z,11.10
2019-01-24T07:10:12.777Z,10.20
2019-01-24T07:12:41.118Z,10.73
2019-01-24T07:15:10.867Z,9.20
2019-01-24T07:17:38.820Z,10.57
2019-01-24T07:20:07.734Z,10.63
2019-01-24T07:22:35.600Z,9.67
2019-01-24T07:25:06.110Z,10.40
2019-01-24T07:27:34.469Z,11.63
2019-01-24T07:30:02.885Z,9.77
2019-01-24T07:32:31.222Z,8.87
2019-01-24T07:34:59.329Z,10.20
2019-01-24T07:37:27.372Z,7.10
2019-01-24T07:39:55.444Z,9.73
2019-01-24T07:42:23.515Z,11.47
2019-01-24T07:44:51.555Z,9.43
2019-01-24T07:47:19.790Z,11.10
2019-01-24T07:49:47.845Z,9.23
2019-01-24T07:52:16.143Z,9.10
2019-01-24T07:54:44.294Z,8.33
2019-01-24T07:57:12.274Z,8.23
2019-01-24T07:59:40.613Z,11.73
2019-01-24T08:02:08.728Z,7.47
2019-01-24T08:04:37.048Z,11.37
2019-01-24T08:07:05.587Z,11.60
2019-01-24T08:09:34.623Z,8.93
2019-01-24T08:12:03.156Z,14.80
2019-01-24T08:14:39.120Z,10.47
2019-01-24T08:17:07.019Z,9.87
2019-01-24T08:19:36.801Z,9.87
2019-01-24T08:22:04.970Z,15.85
2019-01-24T08:24:35.530Z,6.93
2019-01-24T08:27:03.853Z,7.43
2019-01-24T08:29:32.433Z,11.47
2019-01-24T08:32:00.621Z,8.47
2019-01-24T08:34:28.710Z,8.73
2019-01-24T08:36:56.773Z,12.10
2019-01-24T08:39:25.233Z,9.93
2019-01-24T08:41:53.200Z,11.20
2019-01-24T08:44:21.080Z,9.33
2019-01-24T08:46:49.341Z,11.43
2019-01-24T08:49:17.457Z,10.33
2019-01-24T08:51:45.849Z,11.23
2019-01-24T08:54:13.961Z,11.13
2019-01-24T08:56:42.550Z,10.00
2019-01-24T08:59:10.785Z,7.57
2019-01-24T09:01:38.737Z,9.63
2019-01-24T09:04:06.854Z,10.03
2019-01-24T09:06:34.728Z,9.07
2019-01-24T09:09:04.711Z,8.13
2019-01-24T09:11:33.232Z,11.23
2019-01-24T09:14:01.338Z,10.47
2019-01-24T09:16:29.578Z,11.70
2019-01-24T09:18:57.642Z,12.83
2019-01-24T09:21:25.913Z,10.40
2019-01-24T09:23:54.088Z,10.43
2019-01-24T09:26:21.982Z,12.57
2019-01-24T09:28:50.235Z,9.67
2019-01-24T09:31:18.742Z,11.57
2019-01-24T09:33:47.546Z,11.43
2019-01-24T09:36:15.682Z,12.87
2019-01-24T09:38:44.974Z,9.70
2019-01-24T09:41:13.266Z,9.87
2019-01-24T09:43:41.425Z,12.27
2019-01-24T09:46:10.132Z,8.93
2019-01-24T09:48:38.270Z,10.57
2019-01-24T09:51:07.081Z,10.97
2019-01-24T09:53:35.883Z,14.10
2019-01-24T09:56:04.238Z,12.30
2019-01-24T09:58:32.417Z,17.20
2019-01-24T10:01:00.692Z,15.37
2019-01-24T10:03:28.589Z,11.50
2019-01-24T10:05:57.371Z,13.20
2019-01-24T10:08:25.217Z,14.13
2019-01-24T10:10:53.725Z,11.63
2019-01-24T10:13:21.814Z,15.63
2019-01-24T10:15:50.069Z,14.53
2019-01-24T10:18:21.756Z,11.87
2019-01-24T10:20:51.107Z,10.90
2019-01-24T10:23:19.499Z,8.30
2019-01-24T10:25:48.785Z,10.50
2019-01-24T10:28:18.616Z,10.70
2019-01-24T10:30:46.875Z,10.50
2019-01-24T10:33:14.817Z,12.13
2019-01-24T10:35:43.233Z,12.87
2019-01-24T10:38:12.529Z,11.87
2019-01-24T10:40:43.645Z,5.90
2019-01-24T10:43:11.805Z,8.23
2019-01-24T10:45:45.110Z,10.60
2019-01-24T10:48:13.334Z,10.03
2019-01-24T10:50:42.070Z,11.67
2019-01-24T10:53:10.225Z,12.73
2019-01-24T10:56:02.050Z,14.40
2019-01-24T11:02:04.270Z,12.03
2019-01-24T11:05:01.340Z,11.33
2019-01-24T11:07:58.092Z,12.97
2019-01-24T11:10:44.886Z,18.57
2019-01-24T11:13:39.735Z,14.43
2019-01-24T11:16:22.788Z,13.27
2019-01-24T11:19:12.839Z,12.20
2019-01-24T11:22:19.215Z,11.07
2019-01-24T11:24:53.338Z,11.70
2019-01-24T11:27:50.131Z,9.47
2019-01-24T11:30:33.405Z,10.63
2019-01-24T11:36:28.930Z,14.90
2019-01-24T11:39:12.710Z,12.47
2019-01-24T11:42:05.023Z,9.67
2019-01-24T11:44:52.274Z,9.43
2019-01-24T11:47:37.955Z,13.83
2019-01-24T11:50:21.338Z,11.90
2019-01-24T11:53:03.114Z,12.07
2019-01-24T11:55:39.771Z,12.27
2019-01-24T11:58:11.631Z,15.97
2019-01-24T12:00:47.606Z,12.40
2019-01-24T12:03:15.555Z,13.13
2019-01-24T12:05:44.713Z,13.53
2019-01-24T12:08:13.328Z,14.97
2019-01-24T12:10:44.190Z,14.17
2019-01-24T12:13:12.809Z,15.20
2019-01-24T12:15:42.549Z,17.30
2019-01-24T12:18:12.413Z,17.40
2019-01-24T12:20:40.585Z,17.33
2019-01-24T12:23:15.221Z,11.93
2019-01-24T12:25:51.852Z,13.63
2019-01-24T12:28:32.353Z,15.60
2019-01-24T12:31:23.334Z,13.60
2019-01-24T12:34:16.838Z,14.00
2019-01-24T12:37:11.408Z,12.87
2019-01-24T12:39:58.738Z,21.13
2019-01-24T12:42:35.618Z,20.73
2019-01-24T12:45:24.160Z,12.83
2019-01-24T12:48:06.897Z,16.87
2019-01-24T12:50:55.368Z,11.47
2019-01-24T12:53:40.177Z,11.27
2019-01-24T12:56:08.846Z,12.63
2019-01-24T12:58:37.214Z,14.00
2019-01-24T13:01:05.657Z,11.43
2019-01-24T13:03:34.642Z,9.83
2019-01-24T13:06:03.399Z,14.53
2019-01-24T13:08:31.365Z,11.50
2019-01-24T13:11:00.020Z,11.73
2019-01-24T13:13:28.757Z,9.97
2019-01-24T13:15:57.094Z,10.93
2019-01-24T13:18:28.588Z,10.20
2019-01-24T13:20:56.632Z,9.17
2019-01-24T13:23:24.695Z,12.77
2019-01-24T13:25:55.844Z,10.77
2019-01-24T13:28:23.932Z,8.57
2019-01-24T13:30:52.056Z,10.07
2019-01-24T13:33:22.512Z,9.10
2019-01-24T13:35:50.886Z,9.67
2019-01-24T13:38:18.915Z,11.37
2019-01-24T13:40:47.017Z,8.00
2019-01-24T13:43:15.081Z,10.10
2019-01-24T13:45:43.169Z,9.70
2019-01-24T13:48:11.477Z,10.93
2019-01-24T13:50:39.302Z,10.33
2019-01-24T13:53:07.773Z,8.33
2019-01-24T13:55:36.045Z,16.37
2019-01-24T13:58:06.166Z,12.53
2019-01-24T14:00:36.112Z,9.90
2019-01-24T14:03:16.857Z,9.63
2019-01-24T14:05:44.944Z,8.50
2019-01-24T14:08:13.729Z,8.20
2019-01-24T14:10:41.687Z,9.20
2019-01-24T14:13:12.214Z,8.57
2019-01-24T14:15:40.302Z,10.27
2019-01-24T14:18:16.557Z,8.63
2019-01-24T14:20:51.520Z,8.47
2019-01-24T14:23:19.550Z,9.57
2019-01-24T14:25:47.778Z,12.20
2019-01-24T14:28:16.310Z,10.83
2019-01-24T14:30:44.379Z,10.03
2019-01-24T14:33:12.489Z,10.03
2019-01-24T14:35:41.144Z,9.57
2019-01-24T14:38:09.860Z,9.20
2019-01-24T14:40:38.189Z,11.93
2019-01-24T14:43:06.569Z,11.17
2019-01-24T14:45:34.968Z,15.30
2019-01-24T14:48:03.919Z,17.63
2019-01-24T14:50:31.741Z,12.47
2019-01-24T14:52:59.950Z,10.63
2019-01-24T14:55:28.477Z,10.50
2019-01-24T14:57:56.518Z,13.20
2019-01-24T15:00:27.368Z,11.70
2019-01-24T15:02:55.470Z,12.67
2019-01-24T15:05:23.821Z,12.83
2019-01-24T15:07:51.937Z,19.63
2019-01-24T15:10:20.090Z,17.70
2019-01-24T15:12:48.426Z,14.97
2019-01-24T15:15:19.115Z,14.93
2019-01-24T15:17:46.956Z,18.57
2019-01-24T15:20:15.408Z,14.90
2019-01-24T15:22:43.114Z,48.73
2019-01-24T15:25:11.213Z,13.57
2019-01-24T15:27:39.578Z,16.80
2019-01-24T15:30:10.993Z,16.70
2019-01-24T15:32:39.363Z,21.63
2019-01-24T15:35:07.771Z,20.10
2019-01-24T15:37:54.295Z,14.03
2019-01-24T15:40:20.321Z,16.77
2019-01-24T15:42:48.366Z,18.63
2019-01-24T15:45:17.715Z,24.70
2019-01-24T15:47:45.741Z,28.33
2019-01-24T15:50:15.641Z,15.50
2019-01-24T15:52:44.253Z,18.40
2019-01-24T15:55:14.022Z,19.40
2019-01-24T15:57:43.955Z,25.87
2019-01-24T16:00:16.048Z,23.10
2019-01-24T16:02:44.754Z,34.60
2019-01-24T16:05:13.209Z,24.53
2019-01-24T16:07:41.481Z,17.40
2019-01-24T16:10:11.365Z,17.13
2019-01-24T16:12:39.573Z,41.03
2019-01-24T16:15:10.751Z,48.00
2019-01-24T16:17:39.076Z,28.97
2019-01-24T16:20:10.396Z,25.07
2019-01-24T16:22:39.136Z,27.97
2019-01-24T16:25:10.393Z,17.77
2019-01-24T16:27:39.281Z,12.77
2019-01-24T16:30:10.639Z,15.83
2019-01-24T16:32:38.680Z,12.97
2019-01-24T16:35:10.567Z,14.53
2019-01-24T16:37:38.906Z,19.67
2019-01-24T16:40:09.446Z,12.10
2019-01-24T16:42:37.327Z,14.10
2019-01-24T16:45:07.457Z,23.43
2019-01-24T16:47:35.361Z,16.77
2019-01-24T16:50:05.073Z,14.63
2019-01-24T16:52:33.564Z,15.80
2019-01-24T16:55:01.738Z,18.10
2019-01-24T16:57:30.401Z,14.90
2019-01-24T16:59:58.101Z,15.27
2019-01-24T17:02:26.460Z,17.57
2019-01-24T17:04:54.546Z,31.57
2019-01-24T17:07:24.021Z,17.77
2019-01-24T17:09:52.858Z,19.57
2019-01-24T17:12:20.804Z,18.67
2019-01-24T17:14:49.010Z,21.63
2019-01-24T17:17:17.134Z,16.47
2019-01-24T17:19:45.471Z,14.07
2019-01-24T17:22:15.465Z,15.07
2019-01-24T17:24:43.907Z,13.47
2019-01-24T17:27:12.325Z,14.03
2019-01-24T17:29:40.580Z,22.77
2019-01-24T17:32:09.099Z,20.67
2019-01-24T17:34:37.271Z,17.93
2019-01-24T17:37:06.602Z,16.60
2019-01-24T17:39:34.933Z,15.20
2019-01-24T17:42:05.045Z,15.00
2019-01-24T17:44:35.360Z,18.80
2019-01-24T17:47:03.534Z,16.53
2019-01-24T17:49:35.070Z,14.20
2019-01-24T17:52:03.354Z,15.60
2019-01-24T17:54:31.566Z,13.27
2019-01-24T17:57:00.164Z,16.70
2019-01-24T17:59:29.973Z,12.90
2019-01-24T18:01:58.235Z,18.80
2019-01-24T18:04:34.465Z,14.83
2019-01-24T18:07:02.472Z,18.57
2019-01-24T18:09:31.157Z,22.60
2019-01-24T18:11:59.725Z,48.80
2019-01-24T18:14:28.968Z,15.20
2019-01-24T18:16:57.493Z,16.97
2019-01-24T18:19:25.464Z,15.17
2019-01-24T18:21:53.738Z,23.47
2019-01-24T18:24:22.310Z,16.67
2019-01-24T18:26:50.825Z,14.60
2019-01-24T18:29:18.571Z,13.17
2019-01-24T18:31:46.884Z,18.57
2019-01-24T18:34:15.110Z,14.90
2019-01-24T18:36:43.345Z,15.70
2019-01-24T18:39:12.857Z,18.70
2019-01-24T18:41:42.565Z,17.90
2019-01-24T18:44:10.377Z,17.70
2019-01-24T18:46:38.353Z,15.63
2019-01-24T18:49:06.517Z,14.77
2019-01-24T18:51:34.804Z,13.77
2019-01-24T18:54:04.607Z,17.60
2019-01-24T18:56:33.435Z,14.70
2019-01-24T18:59:05.873Z,16.37
2019-01-24T19:01:35.133Z,15.23
2019-01-24T19:04:04.026Z,14.93
2019-01-24T19:06:32.742Z,17.70
2019-01-24T19:09:04.051Z,15.20
2019-01-24T19:11:32.365Z,16.47
2019-01-24T19:14:00.433Z,19.43
2019-01-24T19:16:30.917Z,13.23
2019-01-24T19:19:00.224Z,15.60
2019-01-24T19:21:28.536Z,16.50
2019-01-24T19:23:56.329Z,14.27
2019-01-24T19:26:26.012Z,14.17
2019-01-24T19:28:54.058Z,15.47
2019-01-24T19:31:22.291Z,14.10
2019-01-24T19:33:50.119Z,13.97
2019-01-24T19:36:18.903Z,15.67
2019-01-24T19:38:53.017Z,14.50
2019-01-24T19:41:19.016Z,15.13
2019-01-24T19:43:47.336Z,14.40
2019-01-24T19:46:15.882Z,13.73
2019-01-24T19:48:44.371Z,14.37
2019-01-24T19:51:13.683Z,14.83
2019-01-24T19:53:41.692Z,13.77
2019-01-24T19:56:09.980Z,16.03
2019-01-24T19:58:38.418Z,14.27
2019-01-24T20:01:06.569Z,15.80
2019-01-24T20:03:34.953Z,15.20
2019-01-24T20:06:03.112Z,15.33
2019-01-24T20:08:31.096Z,16.73
2019-01-24T20:10:59.147Z,13.53
2019-01-24T20:13:27.891Z,14.67
2019-01-24T20:15:56.383Z,14.67
2019-01-24T20:18:24.425Z,14.43
2019-01-24T20:20:52.378Z,15.03
2019-01-24T20:23:20.783Z,15.90
2019-01-24T20:25:54.585Z,14.60
2019-01-24T20:28:23.047Z,16.17
2019-01-24T20:30:51.468Z,14.40
2019-01-24T20:33:20.111Z,13.93
2019-01-24T20:35:51.766Z,14.63
2019-01-24T20:38:20.154Z,13.73
2019-01-24T20:40:48.614Z,15.87
2019-01-24T20:43:17.139Z,15.57
2019-01-24T20:45:45.480Z,14.43
2019-01-24T20:48:13.560Z,15.83
2019-01-24T20:50:41.865Z,13.90
2019-01-24T20:53:10.424Z,16.87
2019-01-24T20:55:38.584Z,16.33
2019-01-24T20:58:06.713Z,16.50
2019-01-24T21:00:35.157Z,17.23
2019-01-24T21:03:03.778Z,18.77
2019-01-24T21:05:32.096Z,18.40
2019-01-24T21:08:00.157Z,19.60
2019-01-24T21:10:28.269Z,20.27
2019-01-24T21:12:56.517Z,18.90
2019-01-24T21:15:25.788Z,20.30
2019-01-24T21:17:54.286Z,20.67
2019-01-24T21:20:24.288Z,20.63
2019-01-24T21:22:52.916Z,19.70
2019-01-24T21:25:21.989Z,20.10
2019-01-24T21:27:50.264Z,21.40
2019-01-24T21:30:23.773Z,18.63
2019-01-24T21:32:52.288Z,21.03
2019-01-24T21:35:20.454Z,18.30
2019-01-24T21:37:48.725Z,19.60
2019-01-24T21:40:18.075Z,20.10
2019-01-24T21:42:46.988Z,17.90
2019-01-24T21:45:17.041Z,17.67
2019-01-24T21:47:44.981Z,18.47
2019-01-24T21:50:15.353Z,19.43
2019-01-24T21:52:43.247Z,18.73
2019-01-24T21:55:11.821Z,17.63
2019-01-24T21:57:39.710Z,20.60
2019-01-24T22:00:09.551Z,20.07
2019-01-24T22:02:37.709Z,19.50
2019-01-24T22:05:06.398Z,19.07
2019-01-24T22:07:34.580Z,20.03
2019-01-24T22:10:02.945Z,19.63
2019-01-24T22:12:31.242Z,19.03
2019-01-24T22:14:59.610Z,17.73
2019-01-24T22:17:28.036Z,20.37
2019-01-24T22:19:56.370Z,20.33
2019-01-24T22:22:24.730Z,20.30
2019-01-24T22:24:53.433Z,19.97
2019-01-24T22:27:21.497Z,23.03
2019-01-24T22:29:49.666Z,20.43
2019-01-24T22:32:17.681Z,20.07
2019-01-24T22:34:45.689Z,20.07
2019-01-24T22:37:13.795Z,20.23
2019-01-24T22:39:43.037Z,19.57
2019-01-24T22:42:11.127Z,20.97
2019-01-24T22:44:39.517Z,20.47
2019-01-24T22:47:07.879Z,20.23
2019-01-24T22:49:35.993Z,18.63
2019-01-24T22:52:04.341Z,21.40
2019-01-24T22:54:32.718Z,18.80
2019-01-24T22:57:00.810Z,19.93
2019-01-24T22:59:28.867Z,19.20
2019-01-24T23:02:13.760Z,18.63
2019-01-24T23:04:42.193Z,20.27
2019-01-24T23:07:10.890Z,18.67
2019-01-24T23:09:44.011Z,21.20
2019-01-24T23:12:09.039Z,19.00
2019-01-24T23:14:36.996Z,20.20
2019-01-24T23:17:05.688Z,21.37
2019-01-24T23:19:33.712Z,18.70
2019-01-24T23:22:02.090Z,19.57
2019-01-24T23:24:30.660Z,20.47
2019-01-24T23:26:59.098Z,22.33
2019-01-24T23:29:27.024Z,25.70
2019-01-24T23:31:55.300Z,22.33
2019-01-24T23:34:24.142Z,22.43
2019-01-24T23:36:52.053Z,23.93
2019-01-24T23:39:20.544Z,22.13
2019-01-24T23:41:48.504Z,21.80
2019-01-24T23:44:16.653Z,22.60
2019-01-24T23:46:44.936Z,21.33
2019-01-24T23:49:12.805Z,23.07
2019-01-24T23:51:40.794Z,21.47
2019-01-24T23:54:08.855Z,19.87
2019-01-24T23:56:36.604Z,21.37
2019-01-24T23:59:05.293Z,21.30
